Time;durP1;ratioP1;P1;durP2;ratioP2;P2;SDS_P1;SDS_P2;PMS_P1;PMS_P2;Temp;Humidity;BMP_temperature;BMP_pressure;BME280_temperature;BME280_humidity;BME280_pressure;Samples;Min_cycle;Max_cycle;Signal;HPM_P1;HPM_P2
2022/08/15 00:01:14;;;;;;;16.13;13.20;;;21.10;39.00;;;;;;5103944;28;20566;-86
2022/08/15 00:03:51;;;;;;;12.65;11.45;;;21.00;39.50;;;;;;5106483;28;20211;-86
2022/08/15 00:06:22;;;;;;;6.47;5.88;;;21.00;39.00;;;;;;5107904;28;20266;-86
2022/08/15 00:08:51;;;;;;;5.82;4.93;;;21.00;38.00;;;;;;5103120;28;20311;-86
2022/08/15 00:11:26;;;;;;;6.60;5.38;;;20.90;37.90;;;;;;5105544;28;20723;-86
2022/08/15 00:13:56;;;;;;;11.55;8.70;;;21.00;38.70;;;;;;5107904;28;20294;-86
2022/08/15 00:16:38;;;;;;;6.38;4.63;;;21.00;39.00;;;;;;5110656;28;20196;-86
2022/08/15 00:19:11;;;;;;;6.03;4.68;;;20.90;39.80;;;;;;5110833;28;20570;-86
2022/08/15 00:21:44;;;;;;;6.80;5.63;;;20.80;39.80;;;;;;5112535;28;20206;-86
2022/08/15 00:24:11;;;;;;;7.57;6.18;;;20.70;41.30;;;;;;5103852;28;20203;-86
2022/08/15 00:26:39;;;;;;;7.90;6.65;;;20.70;40.30;;;;;;5104041;28;20204;-86
2022/08/15 00:29:07;;;;;;;9.55;5.82;;;20.70;39.20;;;;;;5106935;28;20269;-86
2022/08/15 00:31:35;;;;;;;9.25;6.68;;;20.70;39.00;;;;;;5099656;28;20201;-86
2022/08/15 00:34:07;;;;;;;9.57;7.32;;;20.70;39.10;;;;;;5113593;28;20312;-86
2022/08/15 00:36:34;;;;;;;8.82;5.68;;;20.70;39.20;;;;;;5109438;28;20200;-86
2022/08/15 00:39:02;;;;;;;6.45;5.53;;;20.70;39.70;;;;;;5111945;28;20202;-86
2022/08/15 00:41:42;;;;;;;12.23;9.20;;;20.60;39.50;;;;;;5113419;28;20235;-86
2022/08/15 00:44:13;;;;;;;8.60;6.90;;;20.60;40.40;;;;;;5099861;28;20219;-86
2022/08/15 00:46:42;;;;;;;6.13;4.72;;;20.60;42.20;;;;;;5103065;28;20214;-86
2022/08/15 00:49:13;;;;;;;7.93;6.60;;;20.50;40.90;;;;;;5114366;28;20256;-87
2022/08/15 00:51:45;;;;;;;5.30;4.70;;;20.40;42.80;;;;;;5098999;28;20200;-86
2022/08/15 00:54:17;;;;;;;4.65;4.25;;;20.40;43.20;;;;;;5112299;28;20195;-86
2022/08/15 00:56:48;;;;;;;5.22;4.72;;;20.40;44.00;;;;;;5099894;28;20218;-86
2022/08/15 00:59:19;;;;;;;5.28;4.30;;;20.20;44.00;;;;;;5113296;28;20570;-86
2022/08/15 01:01:47;;;;;;;5.20;4.35;;;20.10;44.20;;;;;;5110259;28;20235;-86
2022/08/15 01:04:19;;;;;;;4.93;4.43;;;20.10;45.90;;;;;;5094176;28;20204;-86
2022/08/15 01:06:47;;;;;;;5.72;4.50;;;20.00;46.00;;;;;;5110713;28;21809;-86
2022/08/15 01:09:16;;;;;;;5.07;4.45;;;20.10;46.80;;;;;;5115075;28;20211;-86
2022/08/15 01:11:48;;;;;;;4.95;4.50;;;19.90;45.70;;;;;;5111225;28;20207;-86
2022/08/15 01:14:16;;;;;;;4.97;4.57;;;19.90;46.90;;;;;;5103402;28;20200;-85
2022/08/15 01:16:43;;;;;;;5.35;4.32;;;19.90;47.60;;;;;;5102330;28;20199;-86
2022/08/15 01:19:17;;;;;;;4.90;4.30;;;19.90;48.10;;;;;;5113659;28;20710;-85
2022/08/15 01:22:09;;;;;;;6.18;4.55;;;20.00;47.50;;;;;;5113289;28;20203;-86
2022/08/15 01:24:53;;;;;;;5.45;4.78;;;20.00;48.70;;;;;;5106571;28;20207;-85
2022/08/15 01:27:23;;;;;;;5.30;4.80;;;19.80;47.90;;;;;;5115829;28;20205;-85
2022/08/15 01:29:52;;;;;;;5.88;4.50;;;19.80;49.70;;;;;;5116031;28;20298;-85
2022/08/15 01:32:19;;;;;;;10.25;5.20;;;19.70;49.80;;;;;;5098765;28;20630;-85
2022/08/15 01:34:46;;;;;;;5.50;5.00;;;19.60;50.80;;;;;;5102879;28;20200;-85
2022/08/15 01:37:14;;;;;;;5.72;5.15;;;19.70;55.60;;;;;;5113558;28;20651;-85
2022/08/15 01:39:46;;;;;;;8.25;5.05;;;19.90;54.30;;;;;;5114668;28;20200;-85
2022/08/15 01:42:18;;;;;;;5.72;5.03;;;20.00;53.00;;;;;;5115041;28;20196;-85
2022/08/15 01:44:49;;;;;;;5.80;5.20;;;20.20;50.50;;;;;;5113764;28;20303;-87
2022/08/15 01:47:22;;;;;;;5.32;4.82;;;20.20;51.70;;;;;;5112274;28;20654;-86
2022/08/15 01:50:07;;;;;;;7.50;4.60;;;20.20;50.40;;;;;;5109850;28;20698;-86
2022/08/15 01:52:38;;;;;;;5.10;4.70;;;20.10;49.80;;;;;;5112690;28;20203;-86
2022/08/15 01:55:07;;;;;;;5.13;4.57;;;20.00;51.30;;;;;;5116916;28;20681;-85
2022/08/15 01:57:35;;;;;;;5.15;4.65;;;19.90;51.80;;;;;;5119096;28;20239;-85
2022/08/15 02:00:05;;;;;;;5.07;4.57;;;19.90;50.90;;;;;;5119430;28;20200;-85
2022/08/15 02:02:32;;;;;;;6.65;4.88;;;20.00;50.30;;;;;;5115110;28;20199;-86
2022/08/15 02:04:59;;;;;;;5.20;4.70;;;19.90;50.30;;;;;;5109486;28;20288;-86
2022/08/15 02:07:28;;;;;;;5.00;4.60;;;19.90;51.30;;;;;;5111426;28;20196;-86
2022/08/15 02:09:56;;;;;;;5.32;4.82;;;19.80;52.10;;;;;;5101400;28;20700;-86
2022/08/15 02:12:29;;;;;;;6.07;4.80;;;19.70;51.50;;;;;;5106304;28;20193;-86
2022/08/15 02:14:58;;;;;;;5.80;4.82;;;19.50;53.60;;;;;;5112746;28;20199;-86
2022/08/15 02:17:29;;;;;;;5.30;4.80;;;19.50;55.10;;;;;;5099165;28;20203;-86
2022/08/15 02:19:56;;;;;;;5.20;4.70;;;19.50;55.40;;;;;;5099288;28;20659;-86
2022/08/15 02:22:26;;;;;;;5.63;5.13;;;19.70;53.90;;;;;;5104694;28;20188;-86
2022/08/15 02:24:54;;;;;;;5.57;4.70;;;19.80;53.70;;;;;;5116772;28;20199;-86
2022/08/15 02:27:21;;;;;;;4.80;4.40;;;19.80;53.70;;;;;;5099925;28;20208;-86
2022/08/15 02:29:47;;;;;;;5.65;4.80;;;19.70;53.70;;;;;;5109535;28;20226;-86
2022/08/15 02:32:17;;;;;;;5.25;4.55;;;19.50;54.70;;;;;;5104675;28;20196;-86
2022/08/15 02:34:47;;;;;;;5.50;4.60;;;19.50;54.30;;;;;;5109169;28;20196;-86
2022/08/15 02:37:18;;;;;;;5.78;4.60;;;19.40;55.40;;;;;;5114025;28;20192;-86
2022/08/15 02:39:46;;;;;;;5.15;4.60;;;19.40;55.30;;;;;;5099859;28;20652;-86
2022/08/15 02:42:35;;;;;;;4.60;4.18;;;19.40;55.30;;;;;;5113686;28;20295;-86
2022/08/15 02:45:02;;;;;;;5.20;4.35;;;19.40;54.30;;;;;;5108091;28;20226;-86
2022/08/15 02:47:37;;;;;;;6.28;4.72;;;19.50;55.40;;;;;;5107867;28;20283;-86
2022/08/15 02:50:05;;;;;;;4.55;4.15;;;19.60;55.50;;;;;;5101556;28;20238;-86
2022/08/15 02:52:33;;;;;;;5.40;4.82;;;19.60;54.20;;;;;;5114108;28;20192;-86
2022/08/15 02:55:00;;;;;;;4.85;4.35;;;19.70;54.10;;;;;;5106983;28;20204;-86
2022/08/15 02:57:28;;;;;;;4.72;4.32;;;19.80;53.80;;;;;;5115495;28;20204;-86
2022/08/15 02:59:54;;;;;;;4.97;4.30;;;19.90;53.00;;;;;;5113157;28;20207;-86
2022/08/15 03:02:21;;;;;;;6.45;4.45;;;19.90;52.30;;;;;;5114473;28;20207;-86
2022/08/15 03:04:49;;;;;;;6.43;4.40;;;20.00;53.10;;;;;;5113419;28;20199;-86
2022/08/15 03:07:16;;;;;;;5.65;4.35;;;20.00;52.30;;;;;;5111340;28;20204;-86
2022/08/15 03:09:43;;;;;;;6.82;4.32;;;19.90;52.20;;;;;;5109507;28;20224;-85
2022/08/15 03:12:14;;;;;;;4.60;4.20;;;19.90;51.80;;;;;;5111705;28;20239;-85
2022/08/15 03:14:40;;;;;;;4.38;3.88;;;19.80;51.90;;;;;;5119095;28;20618;-86
2022/08/15 03:17:09;;;;;;;5.47;3.72;;;19.80;52.00;;;;;;5114254;28;20196;-86
2022/08/15 03:19:48;;;;;;;4.38;3.97;;;19.80;50.00;;;;;;5102593;28;20204;-86
2022/08/15 03:22:16;;;;;;;5.65;3.58;;;19.90;49.70;;;;;;5116236;28;20198;-86
2022/08/15 03:24:43;;;;;;;4.25;3.85;;;19.90;47.90;;;;;;5115564;28;20214;-86
2022/08/15 03:27:10;;;;;;;5.68;3.70;;;20.00;48.50;;;;;;5111890;28;20203;-86
2022/08/15 03:29:36;;;;;;;4.30;3.83;;;20.10;47.20;;;;;;5112250;28;20224;-86
2022/08/15 03:32:11;;;;;;;4.18;3.70;;;20.10;46.90;;;;;;5114205;28;20210;-86
2022/08/15 03:34:38;;;;;;;5.70;3.80;;;20.10;47.80;;;;;;5119039;28;20196;-85
2022/08/15 03:37:05;;;;;;;6.05;3.70;;;20.10;46.90;;;;;;5117360;28;20233;-85
2022/08/15 03:39:33;;;;;;;5.18;3.85;;;20.10;48.00;;;;;;5116507;28;20734;-86
2022/08/15 03:42:11;;;;;;;4.30;3.70;;;20.10;47.50;;;;;;5111338;28;20667;-86
2022/08/15 03:44:38;;;;;;;8.32;3.60;;;20.10;47.60;;;;;;5106490;28;20237;-86
2022/08/15 03:47:06;;;;;;;5.63;3.47;;;20.10;47.60;;;;;;5110201;28;20551;-86
2022/08/15 03:49:36;;;;;;;8.30;5.70;;;20.10;47.20;;;;;;5110802;28;20636;-86
2022/08/15 03:52:06;;;;;;;4.82;3.33;;;20.10;47.90;;;;;;5113116;28;20208;-86
2022/08/15 03:54:36;;;;;;;4.97;3.60;;;20.20;47.00;;;;;;5108211;28;20295;-86
2022/08/15 03:57:17;;;;;;;4.05;3.53;;;20.20;46.90;;;;;;5103905;28;20203;-86
2022/08/15 03:59:44;;;;;;;5.00;3.50;;;20.20;46.90;;;;;;5113956;28;20199;-86
2022/08/15 04:02:11;;;;;;;5.25;3.80;;;20.30;46.00;;;;;;5096997;28;20575;-86
2022/08/15 04:04:38;;;;;;;4.10;3.53;;;20.40;45.00;;;;;;5109954;28;20201;-86
2022/08/15 04:07:06;;;;;;;5.38;3.63;;;20.40;45.90;;;;;;5097007;28;20203;-86
2022/08/15 04:09:33;;;;;;;4.60;3.38;;;20.50;44.20;;;;;;5096608;28;20567;-85
2022/08/15 04:12:01;;;;;;;5.43;3.28;;;20.50;45.00;;;;;;5098607;28;20200;-86
2022/08/15 04:14:29;;;;;;;5.95;3.50;;;20.50;44.70;;;;;;5106472;28;20210;-86
2022/08/15 04:16:57;;;;;;;4.50;3.10;;;20.50;45.60;;;;;;5113864;28;20200;-86
2022/08/15 04:19:29;;;;;;;4.03;3.42;;;20.50;45.10;;;;;;5114318;28;20202;-86
2022/08/15 04:22:02;;;;;;;4.10;3.33;;;20.50;44.60;;;;;;5100449;28;20612;-86
2022/08/15 04:24:35;;;;;;;4.97;3.47;;;20.50;45.80;;;;;;5105576;28;20202;-86
2022/08/15 04:27:03;;;;;;;3.60;3.30;;;20.50;46.70;;;;;;5100262;28;20221;-86
2022/08/15 04:29:30;;;;;;;5.55;3.22;;;20.40;48.20;;;;;;5096542;28;20192;-86
2022/08/15 04:31:57;;;;;;;5.30;3.17;;;20.50;46.00;;;;;;5113082;28;20294;-86
2022/08/15 04:34:25;;;;;;;8.18;3.28;;;20.50;46.80;;;;;;5116861;28;20199;-86
2022/08/15 04:36:52;;;;;;;4.72;3.00;;;20.50;46.60;;;;;;5119541;28;20202;-86
2022/08/15 04:39:20;;;;;;;4.45;3.03;;;20.50;46.70;;;;;;5105005;28;20192;-86
2022/08/15 04:41:46;;;;;;;4.50;3.35;;;20.50;46.80;;;;;;5103043;28;20291;-86
2022/08/15 04:44:15;;;;;;;4.95;3.30;;;20.50;46.90;;;;;;5110727;28;20327;-86
2022/08/15 04:46:41;;;;;;;3.70;3.15;;;20.50;47.20;;;;;;5097880;28;20206;-86
2022/08/15 04:49:08;;;;;;;5.53;3.38;;;20.50;47.40;;;;;;5101526;28;20264;-86
2022/08/15 04:51:37;;;;;;;4.00;3.00;;;20.50;47.90;;;;;;5097458;28;20216;-86
2022/08/15 04:54:05;;;;;;;3.88;3.05;;;20.50;47.90;;;;;;5099692;28;20326;-86
2022/08/15 04:56:32;;;;;;;5.32;3.33;;;20.40;48.70;;;;;;5094427;28;20204;-86
2022/08/15 04:58:59;;;;;;;3.80;3.00;;;20.40;47.90;;;;;;5097044;28;20747;-86
2022/08/15 05:01:27;;;;;;;8.07;3.10;;;20.40;49.20;;;;;;5105561;28;20283;-86
2022/08/15 05:03:54;;;;;;;3.90;3.30;;;20.40;50.10;;;;;;5106852;28;20276;-85
2022/08/15 05:06:21;;;;;;;6.97;3.05;;;20.40;51.00;;;;;;5120163;28;20302;-85
2022/08/15 05:08:53;;;;;;;5.82;3.28;;;20.30;51.60;;;;;;5114749;28;20208;-86
2022/08/15 05:11:24;;;;;;;5.05;3.10;;;20.40;51.40;;;;;;5106990;28;20283;-86
2022/08/15 05:13:52;;;;;;;3.10;2.85;;;20.30;52.90;;;;;;5113565;28;20207;-86
2022/08/15 05:16:20;;;;;;;4.47;3.10;;;20.30;54.20;;;;;;5113453;28;20643;-86
2022/08/15 05:18:48;;;;;;;4.72;2.80;;;20.30;55.20;;;;;;5110505;28;20235;-86
2022/08/15 05:21:15;;;;;;;4.97;3.20;;;20.40;54.30;;;;;;5110638;28;20206;-86
2022/08/15 05:23:43;;;;;;;6.15;3.17;;;20.40;56.30;;;;;;5109883;28;20203;-86
2022/08/15 05:26:12;;;;;;;6.68;3.33;;;20.40;56.20;;;;;;5110475;28;20212;-86
2022/08/15 05:28:40;;;;;;;6.55;3.20;;;20.50;56.30;;;;;;5108547;28;20300;-84
2022/08/15 05:31:09;;;;;;;4.97;3.20;;;20.60;56.40;;;;;;5112714;28;20241;-83
2022/08/15 05:33:37;;;;;;;5.78;3.03;;;20.60;56.40;;;;;;5117440;28;20204;-84
2022/08/15 05:36:08;;;;;;;3.20;2.90;;;20.80;52.30;;;;;;5118976;28;20281;-83
2022/08/15 05:38:40;;;;;;;4.78;3.00;;;20.80;52.90;;;;;;5112976;28;20247;-83
2022/08/15 05:41:20;;;;;;;4.78;2.97;;;20.80;53.10;;;;;;5120041;28;20204;-84
2022/08/15 05:43:58;;;;;;;4.45;2.50;;;20.80;52.10;;;;;;5116988;28;20226;-83
2022/08/15 05:46:43;;;;;;;4.80;2.30;;;20.80;51.20;;;;;;5112382;28;20281;-84
2022/08/15 05:49:24;;;;;;;3.78;2.78;;;21.00;50.20;;;;;;5116679;28;20196;-84
2022/08/15 05:52:04;;;;;;;3.85;2.55;;;21.10;50.40;;;;;;5121171;28;20223;-84
2022/08/15 05:54:46;;;;;;;3.60;2.75;;;21.10;50.50;;;;;;5113197;28;20204;-84
2022/08/15 05:57:18;;;;;;;3.92;2.70;;;21.00;52.00;;;;;;5121065;28;20204;-84
2022/08/15 05:59:51;;;;;;;4.97;2.70;;;21.00;52.30;;;;;;5121951;28;20192;-84
2022/08/15 06:02:25;;;;;;;4.32;2.50;;;20.90;52.80;;;;;;5123113;28;20204;-83
2022/08/15 06:04:59;;;;;;;3.22;2.90;;;20.80;54.30;;;;;;5118677;28;20219;-83
2022/08/15 06:07:29;;;;;;;4.35;2.80;;;20.80;53.20;;;;;;5109335;28;20195;-83
2022/08/15 06:09:59;;;;;;;4.32;2.78;;;20.70;53.60;;;;;;5121592;28;20196;-84
2022/08/15 06:12:32;;;;;;;3.00;2.60;;;20.80;52.50;;;;;;5114283;28;20211;-83
2022/08/15 06:15:04;;;;;;;5.03;2.50;;;20.80;51.60;;;;;;5119206;28;20565;-84
2022/08/15 06:17:38;;;;;;;3.20;2.10;;;21.00;50.40;;;;;;5116151;28;20227;-83
2022/08/15 06:20:09;;;;;;;3.17;2.20;;;21.20;48.90;;;;;;5108685;28;20196;-83
2022/08/15 06:22:50;;;;;;;2.60;2.40;;;21.20;47.70;;;;;;5122160;28;20202;-84
2022/08/15 06:25:24;;;;;;;2.92;2.25;;;21.30;46.20;;;;;;5120747;27;20188;-83
2022/08/15 06:28:09;;;;;;;4.45;2.30;;;21.30;45.00;;;;;;5111631;28;20194;-83
2022/08/15 06:30:44;;;;;;;3.25;2.25;;;21.40;45.00;;;;;;5108272;27;20219;-84
2022/08/15 06:33:24;;;;;;;2.80;2.40;;;21.30;46.60;;;;;;5121068;28;20680;-84
2022/08/15 06:36:00;;;;;;;2.42;2.15;;;21.40;44.10;;;;;;5116718;28;20207;-83
2022/08/15 06:38:38;;;;;;;4.97;2.42;;;21.20;45.30;;;;;;5111277;28;20202;-84
2022/08/15 06:41:14;;;;;;;3.53;2.33;;;21.20;47.40;;;;;;5120688;27;20204;-84
2022/08/15 06:43:42;;;;;;;2.85;2.20;;;21.20;45.90;;;;;;5118798;28;20585;-84
2022/08/15 06:46:10;;;;;;;2.70;2.33;;;21.10;48.90;;;;;;5120980;28;20192;-84
2022/08/15 06:48:40;;;;;;;3.17;2.42;;;21.00;48.90;;;;;;5111253;28;20207;-84
2022/08/15 06:51:10;;;;;;;3.17;2.40;;;20.90;50.10;;;;;;5119501;28;20220;-84
2022/08/15 06:53:47;;;;;;;2.45;2.25;;;20.80;50.80;;;;;;5114050;28;20287;-84
2022/08/15 06:56:24;;;;;;;4.00;2.80;;;20.90;50.00;;;;;;5104608;28;20292;-84
2022/08/15 06:59:01;;;;;;;3.67;2.50;;;21.00;48.70;;;;;;5124096;28;20200;-84
2022/08/15 07:01:40;;;;;;;4.20;2.40;;;21.10;48.60;;;;;;5120657;27;20196;-84
2022/08/15 07:04:16;;;;;;;2.40;2.20;;;21.10;49.10;;;;;;5109669;28;20200;-84
2022/08/15 07:07:01;;;;;;;3.90;2.45;;;21.00;50.40;;;;;;5101873;28;20208;-84
2022/08/15 07:09:41;;;;;;;2.40;2.17;;;21.10;48.90;;;;;;5114571;28;20565;-84
2022/08/15 07:12:20;;;;;;;4.40;2.55;;;21.10;49.20;;;;;;5112565;28;20233;-84
2022/08/15 07:15:01;;;;;;;2.78;2.38;;;21.10;49.30;;;;;;5118969;28;20192;-84
2022/08/15 07:17:34;;;;;;;2.65;2.45;;;21.10;50.50;;;;;;5103689;28;20201;-84
2022/08/15 07:20:01;;;;;;;4.50;2.38;;;21.00;49.50;;;;;;5105860;28;20200;-84
2022/08/15 07:22:29;;;;;;;3.25;2.30;;;20.90;52.90;;;;;;5110029;28;20202;-84
2022/08/15 07:25:01;;;;;;;2.67;2.30;;;20.90;52.30;;;;;;5110139;28;20196;-83
2022/08/15 07:27:31;;;;;;;3.95;2.10;;;21.00;50.20;;;;;;5120826;28;20195;-84
2022/08/15 07:30:02;;;;;;;3.17;2.30;;;20.90;52.20;;;;;;5121508;28;20685;-84
2022/08/15 07:32:36;;;;;;;2.60;2.10;;;20.80;52.90;;;;;;5120612;28;20569;-84
2022/08/15 07:35:16;;;;;;;3.13;2.10;;;20.80;53.40;;;;;;5105742;28;20585;-84
2022/08/15 07:37:55;;;;;;;3.60;2.20;;;20.90;51.80;;;;;;5117528;28;20450;-84
2022/08/15 07:40:27;;;;;;;2.40;2.20;;;20.90;53.00;;;;;;5120035;28;20195;-84
2022/08/15 07:43:25;;;;;;;3.30;2.28;;;21.10;52.80;;;;;;5100446;28;20201;-84
2022/08/15 07:46:07;;;;;;;3.22;2.40;;;21.40;51.30;;;;;;5106527;28;20200;-84
2022/08/15 07:49:10;;;;;;;2.83;2.00;;;21.80;50.00;;;;;;5116811;28;20207;-84
2022/08/15 07:51:42;;;;;;;2.65;2.33;;;22.10;44.50;;;;;;5100869;28;20567;-84
2022/08/15 07:54:24;;;;;;;2.35;2.15;;;22.50;40.00;;;;;;5116130;28;20214;-85
2022/08/15 07:56:57;;;;;;;3.58;2.42;;;22.60;40.50;;;;;;5105347;28;20614;-84
2022/08/15 07:59:27;;;;;;;2.95;2.20;;;22.70;40.10;;;;;;5118132;28;20291;-84
2022/08/15 08:02:02;;;;;;;3.00;2.20;;;22.60;40.40;;;;;;5110150;28;20208;-84
2022/08/15 08:04:32;;;;;;;2.38;2.17;;;22.60;40.60;;;;;;5097424;28;20200;-84
2022/08/15 08:07:04;;;;;;;2.25;2.10;;;22.70;40.60;;;;;;5116957;28;20211;-84
2022/08/15 08:09:38;;;;;;;2.97;2.50;;;22.80;40.20;;;;;;5115224;28;20196;-84
2022/08/15 08:12:18;;;;;;;3.10;2.47;;;22.90;39.70;;;;;;5108400;28;20232;-84
2022/08/15 08:14:55;;;;;;;2.20;2.00;;;23.10;38.00;;;;;;5108762;28;20200;-84
2022/08/15 08:17:30;;;;;;;2.42;2.22;;;23.10;39.10;;;;;;5114656;28;20200;-82
2022/08/15 08:20:05;;;;;;;4.25;2.50;;;23.20;38.00;;;;;;5118125;28;20654;-82
2022/08/15 08:22:43;;;;;;;2.13;1.92;;;23.60;35.20;;;;;;5116086;28;20199;-81
2022/08/15 08:25:24;;;;;;;3.03;2.30;;;24.00;33.50;;;;;;5118063;28;20200;-81
2022/08/15 08:28:06;;;;;;;3.22;2.38;;;24.10;33.90;;;;;;5109616;28;20194;-81
2022/08/15 08:30:38;;;;;;;2.97;2.00;;;24.20;31.90;;;;;;5116522;28;20199;-80
2022/08/15 08:33:14;;;;;;;2.70;2.30;;;24.20;32.10;;;;;;5099914;28;20200;-81
2022/08/15 08:35:48;;;;;;;2.60;2.40;;;24.20;33.20;;;;;;5113260;28;20204;-80
2022/08/15 08:38:30;;;;;;;2.30;1.90;;;24.10;31.30;;;;;;5117653;28;20213;-81
2022/08/15 08:43:59;;;;;;;2.50;2.25;;;23.90;32.10;;;;;;5118285;28;20247;-81
2022/08/15 08:47:01;;;;;;;3.20;2.20;;;23.90;32.20;;;;;;5116385;28;20282;-82
2022/08/15 08:49:38;;;;;;;2.88;2.50;;;23.90;32.90;;;;;;5114292;28;20210;-82
2022/08/15 08:52:14;;;;;;;2.50;2.30;;;23.90;34.10;;;;;;5115701;28;20231;-82
2022/08/15 08:54:51;;;;;;;3.40;2.40;;;24.00;32.90;;;;;;5115707;28;20196;-81
2022/08/15 08:57:24;;;;;;;3.10;2.50;;;23.80;32.60;;;;;;5106947;28;20195;-81
2022/08/15 09:00:00;;;;;;;22.88;7.55;;;23.60;35.10;;;;;;5101813;28;20298;-81
2022/08/15 09:02:30;;;;;;;5.10;4.10;;;23.50;35.00;;;;;;5114699;28;20210;-83
2022/08/15 09:05:01;;;;;;;4.97;2.85;;;23.50;35.00;;;;;;5112528;28;20207;-84
2022/08/15 09:07:35;;;;;;;31.92;28.55;;;23.30;37.40;;;;;;5115234;28;20206;-84
2022/08/15 09:10:06;;;;;;;10.68;9.57;;;23.40;34.90;;;;;;5111944;28;20204;-84
2022/08/15 09:15:27;;;;;;;7.18;6.47;;;23.30;34.80;;;;;;5115458;28;20290;-84
2022/08/15 09:17:59;;;;;;;7.93;6.35;;;23.10;34.70;;;;;;5116520;28;20725;-84
2022/08/15 09:20:33;;;;;;;3.45;2.90;;;23.20;34.80;;;;;;5106526;28;20200;-84
2022/08/15 09:23:01;;;;;;;3.97;2.40;;;23.10;34.70;;;;;;5108268;28;20210;-84
2022/08/15 09:25:30;;;;;;;2.92;2.25;;;23.00;36.30;;;;;;5121490;28;20199;-84
2022/08/15 09:28:18;;;;;;;5.25;3.20;;;23.00;37.00;;;;;;5117192;28;20200;-83
2022/08/15 09:30:48;;;;;;;3.40;2.50;;;23.00;34.60;;;;;;5111334;28;20295;-84
2022/08/15 09:33:45;;;;;;;3.50;2.53;;;23.00;37.40;;;;;;5110054;28;20204;-84
2022/08/15 09:36:32;;;;;;;2.95;2.33;;;23.00;35.40;;;;;;5059578;28;20194;-84
2022/08/15 09:39:14;;;;;;;4.65;2.70;;;23.10;37.00;;;;;;5073983;28;20284;-84
2022/08/15 09:42:04;;;;;;;2.90;2.15;;;23.40;34.90;;;;;;5076605;28;20201;-82
2022/08/15 09:44:54;;;;;;;3.03;2.30;;;23.80;31.60;;;;;;5059587;28;20304;-82
2022/08/15 09:47:46;;;;;;;3.35;2.30;;;24.20;29.90;;;;;;5074541;28;20205;-82
2022/08/15 09:50:40;;;;;;;3.10;2.33;;;24.80;27.40;;;;;;5026205;28;20203;-81
2022/08/15 09:53:24;;;;;;;3.17;2.10;;;25.00;27.60;;;;;;5015649;28;20255;-81
2022/08/15 09:55:52;;;;;;;3.75;2.35;;;25.20;27.70;;;;;;5006601;28;20335;-82
2022/08/15 09:58:26;;;;;;;3.13;2.28;;;25.20;28.40;;;;;;5018941;28;20372;-82
2022/08/15 10:01:03;;;;;;;2.65;2.22;;;25.30;25.80;;;;;;5019542;28;20208;-83
2022/08/15 10:03:53;;;;;;;4.00;2.42;;;25.40;25.90;;;;;;5016780;28;20230;-82
2022/08/15 10:06:23;;;;;;;2.53;2.15;;;25.60;27.60;;;;;;5008592;28;20207;-83
2022/08/15 10:09:21;;;;;;;2.92;2.30;;;26.50;23.90;;;;;;5015947;28;20751;-83
2022/08/15 10:12:24;;;;;;;3.28;2.45;;;28.00;20.30;;;;;;4969912;28;20278;-83
2022/08/15 10:15:03;;;;;;;4.38;2.72;;;29.00;16.20;;;;;;4970647;28;20208;-84
2022/08/15 10:17:44;;;;;;;3.97;3.58;;;29.40;16.40;;;;;;4975222;28;20199;-84
2022/08/15 10:21:00;;;;;;;4.70;3.30;;;30.10;15.30;;;;;;4976395;28;20306;-84
2022/08/15 10:23:32;;;;;;;2.75;2.55;;;31.00;12.60;;;;;;4975361;28;20782;-84
2022/08/15 10:26:21;;;;;;;2.83;2.60;;;30.60;14.30;;;;;;4980286;28;20267;-84
2022/08/15 10:29:00;;;;;;;3.40;2.60;;;29.70;15.70;;;;;;5031900;28;20203;-84
2022/08/15 10:31:38;;;;;;;2.92;2.30;;;29.10;16.20;;;;;;5025591;28;20606;-84
2022/08/15 10:34:08;;;;;;;3.60;2.50;;;28.50;17.20;;;;;;5028973;28;20691;-83
2022/08/15 10:36:36;;;;;;;3.13;2.60;;;27.70;17.60;;;;;;5033943;28;20648;-83
2022/08/15 10:39:31;;;;;;;3.20;2.50;;;27.40;18.50;;;;;;5033446;28;20198;-84
2022/08/15 10:42:09;;;;;;;2.67;2.47;;;27.70;18.60;;;;;;5029026;28;20202;-84
2022/08/15 10:44:47;;;;;;;2.60;2.40;;;28.10;17.50;;;;;;5036601;28;20230;-83
2022/08/15 10:47:24;;;;;;;3.28;2.38;;;28.20;16.90;;;;;;5036214;28;20216;-83
2022/08/15 10:50:03;;;;;;;2.60;2.38;;;27.90;20.00;;;;;;5066981;28;20202;-84
2022/08/15 10:52:42;;;;;;;2.42;2.22;;;27.80;18.90;;;;;;5112901;28;20576;-84
2022/08/15 10:55:37;;;;;;;3.55;2.22;;;28.10;18.30;;;;;;5114878;28;20199;-83
2022/08/15 10:58:18;;;;;;;2.70;2.45;;;28.40;15.80;;;;;;5115847;28;20235;-83
2022/08/15 11:00:51;;;;;;;3.88;2.38;;;29.00;16.10;;;;;;5115969;28;20611;-83
2022/08/15 11:03:24;;;;;;;2.45;2.33;;;29.00;16.10;;;;;;5114614;28;20207;-84
2022/08/15 11:05:57;;;;;;;2.47;2.28;;;29.00;16.20;;;;;;5105993;28;20678;-84
2022/08/15 11:08:30;;;;;;;3.38;2.40;;;29.10;16.20;;;;;;5111850;28;20203;-84
2022/08/15 11:11:05;;;;;;;4.15;2.50;;;28.90;16.10;;;;;;5106946;28;20569;-84
2022/08/15 11:13:33;;;;;;;2.40;2.20;;;28.70;16.00;;;;;;5113885;28;20348;-84
2022/08/15 11:16:09;;;;;;;2.55;2.35;;;28.50;15.90;;;;;;5098506;28;20303;-84
2022/08/15 11:18:43;;;;;;;2.60;2.40;;;28.90;16.10;;;;;;5100700;28;20234;-83
2022/08/15 11:21:28;;;;;;;2.75;2.55;;;28.70;17.60;;;;;;5108083;28;20195;-83
2022/08/15 11:24:06;;;;;;;2.88;2.30;;;28.80;17.50;;;;;;5103941;28;20195;-84
2022/08/15 11:26:41;;;;;;;2.40;2.20;;;29.10;16.20;;;;;;5117282;28;20207;-84
2022/08/15 11:29:16;;;;;;;3.85;2.33;;;29.10;16.20;;;;;;5100478;28;20202;-83
2022/08/15 11:31:49;;;;;;;3.08;2.78;;;29.00;16.10;;;;;;5100191;28;20277;-84
2022/08/15 11:34:25;;;;;;;2.13;1.92;;;28.90;16.10;;;;;;5113808;28;20192;-84
2022/08/15 11:36:55;;;;;;;4.47;4.07;;;29.10;16.20;;;;;;5103645;28;20623;-84
2022/08/15 11:39:22;;;;;;;3.60;2.10;;;29.00;14.50;;;;;;5110184;28;20192;-84
2022/08/15 11:41:55;;;;;;;2.78;2.50;;;28.60;16.00;;;;;;5097097;28;20643;-84
2022/08/15 11:44:26;;;;;;;4.30;2.30;;;28.40;15.90;;;;;;5102482;28;20211;-84
2022/08/15 11:46:54;;;;;;;2.20;2.00;;;28.00;16.80;;;;;;5112459;28;20282;-84
2022/08/15 11:49:31;;;;;;;2.83;2.05;;;27.90;15.60;;;;;;5113459;28;20201;-84
2022/08/15 11:52:05;;;;;;;2.20;2.00;;;27.70;15.90;;;;;;5113167;28;20218;-84
2022/08/15 11:54:32;;;;;;;2.92;1.90;;;27.50;17.20;;;;;;5113131;28;20192;-84
2022/08/15 11:57:03;;;;;;;2.30;2.10;;;27.30;16.60;;;;;;5115108;28;20295;-84
2022/08/15 11:59:32;;;;;;;2.42;2.03;;;27.10;17.00;;;;;;5099220;28;20207;-84
2022/08/15 12:02:08;;;;;;;2.10;2.00;;;26.80;17.50;;;;;;5114064;28;20204;-84
2022/08/15 12:04:40;;;;;;;2.25;2.00;;;26.80;18.00;;;;;;5115086;28;20210;-84
2022/08/15 12:07:14;;;;;;;3.40;2.10;;;26.80;17.30;;;;;;5106325;28;20204;-84
2022/08/15 12:09:51;;;;;;;2.95;2.10;;;26.70;17.30;;;;;;5113773;28;20202;-84
2022/08/15 12:12:30;;;;;;;2.35;2.15;;;26.80;17.60;;;;;;5107584;28;20222;-84
2022/08/15 12:15:02;;;;;;;2.20;2.10;;;26.60;18.10;;;;;;5113843;28;20209;-84
2022/08/15 12:17:31;;;;;;;2.70;1.80;;;26.90;17.80;;;;;;5113892;28;20203;-85
2022/08/15 12:19:58;;;;;;;4.95;2.17;;;26.90;16.40;;;;;;5111526;28;20203;-84
2022/08/15 12:22:34;;;;;;;2.40;2.10;;;26.80;16.30;;;;;;5113602;28;20204;-84
2022/08/15 12:25:01;;;;;;;3.45;2.10;;;27.00;17.10;;;;;;5115949;27;20572;-84
2022/08/15 12:27:29;;;;;;;2.42;2.00;;;26.90;16.50;;;;;;5120726;28;20204;-84
2022/08/15 12:29:59;;;;;;;2.92;2.30;;;26.70;17.30;;;;;;5114377;28;20214;-84
2022/08/15 12:32:26;;;;;;;2.72;2.35;;;26.80;18.10;;;;;;5111930;28;20620;-84
2022/08/15 12:34:54;;;;;;;2.10;2.00;;;26.80;18.70;;;;;;5116808;28;20206;-84
2022/08/15 12:37:24;;;;;;;2.47;1.98;;;26.90;18.50;;;;;;5118920;28;20200;-84
2022/08/15 12:39:53;;;;;;;3.40;2.40;;;26.90;18.10;;;;;;5111727;28;20203;-85
2022/08/15 12:42:23;;;;;;;2.75;2.33;;;27.20;17.50;;;;;;5109291;28;20196;-84
2022/08/15 12:44:54;;;;;;;2.45;2.13;;;27.40;16.50;;;;;;5113185;28;20221;-84
2022/08/15 12:47:22;;;;;;;2.30;2.10;;;27.50;16.80;;;;;;5113395;28;20199;-84
2022/08/15 12:49:49;;;;;;;3.15;2.33;;;27.60;16.20;;;;;;5112830;28;20211;-84
2022/08/15 12:52:19;;;;;;;2.30;2.10;;;27.40;17.20;;;;;;5112065;28;20223;-82
2022/08/15 12:54:46;;;;;;;3.45;2.33;;;27.30;16.90;;;;;;5112994;28;20210;-82
2022/08/15 12:57:13;;;;;;;14.57;13.15;;;27.20;15.30;;;;;;5117210;28;20195;-82
2022/08/15 12:59:41;;;;;;;4.90;2.45;;;27.30;15.30;;;;;;5105556;28;20200;-82
2022/08/15 13:02:14;;;;;;;3.17;2.50;;;27.30;15.30;;;;;;5113698;28;20211;-82
2022/08/15 13:04:50;;;;;;;3.00;2.70;;;27.30;15.30;;;;;;5113846;28;20553;-82
2022/08/15 13:07:19;;;;;;;2.33;2.03;;;27.30;16.50;;;;;;5113741;28;20238;-82
2022/08/15 13:09:46;;;;;;;2.60;2.40;;;27.20;15.20;;;;;;5113127;28;20200;-82
2022/08/15 13:12:13;;;;;;;3.40;3.10;;;27.10;15.20;;;;;;5115641;28;20224;-80
2022/08/15 13:14:40;;;;;;;3.25;2.45;;;27.10;16.50;;;;;;5113178;28;20223;-82
2022/08/15 13:17:08;;;;;;;3.08;2.47;;;27.00;15.80;;;;;;5111940;28;20211;-80
2022/08/15 13:25:06;;;;;;;4.13;3.72;;;27.10;15.90;;;;;;5069699;28;20675;-80
2022/08/15 13:27:34;;;;;;;3.83;2.67;;;27.10;17.40;;;;;;5068133;28;20201;-82